sensor_id;sensor_type;location;lat;lon;timestamp;temperature;humidity
63317;DHT22;49822;41.468;13.560;2023-06-19T00:00:38;20.60;84.30
63317;DHT22;49822;41.468;13.560;2023-06-19T00:03:05;20.60;84.30
63317;DHT22;49822;41.468;13.560;2023-06-19T00:05:31;20.60;84.70
63317;DHT22;49822;41.468;13.560;2023-06-19T00:07:57;20.40;85.00
63317;DHT22;49822;41.468;13.560;2023-06-19T00:10:23;20.40;85.30
63317;DHT22;49822;41.468;13.560;2023-06-19T00:12:50;20.30;85.40
63317;DHT22;49822;41.468;13.560;2023-06-19T00:15:16;20.30;85.10
63317;DHT22;49822;41.468;13.560;2023-06-19T00:17:42;20.30;85.10
63317;DHT22;49822;41.468;13.560;2023-06-19T00:20:09;20.30;84.90
63317;DHT22;49822;41.468;13.560;2023-06-19T00:22:35;20.40;84.80
63317;DHT22;49822;41.468;13.560;2023-06-19T00:25:01;20.30;84.40
63317;DHT22;49822;41.468;13.560;2023-06-19T00:27:27;20.40;84.60
63317;DHT22;49822;41.468;13.560;2023-06-19T00:29:53;20.30;85.00
63317;DHT22;49822;41.468;13.560;2023-06-19T00:32:19;20.20;85.00
63317;DHT22;49822;41.468;13.560;2023-06-19T00:34:45;20.20;84.90
63317;DHT22;49822;41.468;13.560;2023-06-19T00:37:12;20.10;85.00
63317;DHT22;49822;41.468;13.560;2023-06-19T00:39:42;20.10;85.40
63317;DHT22;49822;41.468;13.560;2023-06-19T00:42:08;20.20;85.60
63317;DHT22;49822;41.468;13.560;2023-06-19T00:44:34;20.20;85.40
63317;DHT22;49822;41.468;13.560;2023-06-19T00:47:02;20.20;85.40
63317;DHT22;49822;41.468;13.560;2023-06-19T00:49:30;20.10;85.50
63317;DHT22;49822;41.468;13.560;2023-06-19T00:51:56;20.10;85.20
63317;DHT22;49822;41.468;13.560;2023-06-19T00:54:23;20.10;85.60
63317;DHT22;49822;41.468;13.560;2023-06-19T00:56:50;20.20;85.60
63317;DHT22;49822;41.468;13.560;2023-06-19T00:59:19;19.90;86.00
63317;DHT22;49822;41.468;13.560;2023-06-19T01:01:46;19.60;87.00
63317;DHT22;49822;41.468;13.560;2023-06-19T01:04:13;19.50;87.20
63317;DHT22;49822;41.468;13.560;2023-06-19T01:06:48;19.60;87.10
63317;DHT22;49822;41.468;13.560;2023-06-19T01:09:17;19.60;86.90
63317;DHT22;49822;41.468;13.560;2023-06-19T01:11:50;19.60;87.00
63317;DHT22;49822;41.468;13.560;2023-06-19T01:14:30;19.70;86.50
63317;DHT22;49822;41.468;13.560;2023-06-19T01:17:01;19.70;86.90
63317;DHT22;49822;41.468;13.560;2023-06-19T01:19:28;19.70;86.80
63317;DHT22;49822;41.468;13.560;2023-06-19T01:21:55;19.80;86.40
63317;DHT22;49822;41.468;13.560;2023-06-19T01:24:21;19.90;86.40
63317;DHT22;49822;41.468;13.560;2023-06-19T01:26:47;20.00;86.10
63317;DHT22;49822;41.468;13.560;2023-06-19T01:29:14;20.00;85.70
63317;DHT22;49822;41.468;13.560;2023-06-19T01:32:24;20.10;86.00
63317;DHT22;49822;41.468;13.560;2023-06-19T01:34:52;20.10;85.60
63317;DHT22;49822;41.468;13.560;2023-06-19T01:37:21;20.00;85.30
63317;DHT22;49822;41.468;13.560;2023-06-19T01:39:57;20.10;85.50
63317;DHT22;49822;41.468;13.560;2023-06-19T01:42:26;19.90;85.80
63317;DHT22;49822;41.468;13.560;2023-06-19T01:44:53;19.90;86.10
63317;DHT22;49822;41.468;13.560;2023-06-19T01:47:19;19.90;85.60
63317;DHT22;49822;41.468;13.560;2023-06-19T01:49:46;19.80;85.90
63317;DHT22;49822;41.468;13.560;2023-06-19T01:52:13;19.70;85.90
63317;DHT22;49822;41.468;13.560;2023-06-19T01:54:39;19.80;85.80
63317;DHT22;49822;41.468;13.560;2023-06-19T01:57:06;19.80;85.70
63317;DHT22;49822;41.468;13.560;2023-06-19T01:59:32;19.80;85.70
63317;DHT22;49822;41.468;13.560;2023-06-19T02:01:58;19.70;86.50
63317;DHT22;49822;41.468;13.560;2023-06-19T02:04:24;19.40;87.20
63317;DHT22;49822;41.468;13.560;2023-06-19T02:06:50;19.30;87.90
63317;DHT22;49822;41.468;13.560;2023-06-19T02:09:17;19.10;88.60
63317;DHT22;49822;41.468;13.560;2023-06-19T02:11:42;19.00;89.00
63317;DHT22;49822;41.468;13.560;2023-06-19T02:14:10;19.00;88.50
63317;DHT22;49822;41.468;13.560;2023-06-19T02:16:37;19.10;87.80
63317;DHT22;49822;41.468;13.560;2023-06-19T02:19:03;19.20;87.80
63317;DHT22;49822;41.468;13.560;2023-06-19T02:21:29;19.30;87.70
63317;DHT22;49822;41.468;13.560;2023-06-19T02:23:56;19.50;87.50
63317;DHT22;49822;41.468;13.560;2023-06-19T02:26:22;19.50;87.20
63317;DHT22;49822;41.468;13.560;2023-06-19T02:28:48;19.30;87.70
63317;DHT22;49822;41.468;13.560;2023-06-19T02:31:14;19.00;88.60
63317;DHT22;49822;41.468;13.560;2023-06-19T02:33:39;19.00;88.10
63317;DHT22;49822;41.468;13.560;2023-06-19T02:36:06;19.10;88.20
63317;DHT22;49822;41.468;13.560;2023-06-19T02:38:32;19.20;88.10
63317;DHT22;49822;41.468;13.560;2023-06-19T02:40:58;19.10;88.10
63317;DHT22;49822;41.468;13.560;2023-06-19T02:43:27;19.10;87.70
63317;DHT22;49822;41.468;13.560;2023-06-19T02:45:53;19.20;87.70
63317;DHT22;49822;41.468;13.560;2023-06-19T02:48:19;19.20;87.70
63317;DHT22;49822;41.468;13.560;2023-06-19T02:50:45;19.20;87.90
63317;DHT22;49822;41.468;13.560;2023-06-19T02:53:11;19.20;87.80
63317;DHT22;49822;41.468;13.560;2023-06-19T02:55:37;19.20;88.00
63317;DHT22;49822;41.468;13.560;2023-06-19T02:58:03;19.30;87.50
63317;DHT22;49822;41.468;13.560;2023-06-19T03:00:30;19.30;87.20
63317;DHT22;49822;41.468;13.560;2023-06-19T03:02:57;19.40;87.50
63317;DHT22;49822;41.468;13.560;2023-06-19T03:05:24;19.30;87.70
63317;DHT22;49822;41.468;13.560;2023-06-19T03:07:53;19.20;88.20
63317;DHT22;49822;41.468;13.560;2023-06-19T03:10:19;19.10;88.40
63317;DHT22;49822;41.468;13.560;2023-06-19T03:13:04;18.90;89.60
63317;DHT22;49822;41.468;13.560;2023-06-19T03:15:33;18.90;89.20
63317;DHT22;49822;41.468;13.560;2023-06-19T03:17:59;19.00;88.80
63317;DHT22;49822;41.468;13.560;2023-06-19T03:20:29;19.10;88.20
63317;DHT22;49822;41.468;13.560;2023-06-19T03:22:57;19.10;87.80
63317;DHT22;49822;41.468;13.560;2023-06-19T03:25:24;19.20;87.40
63317;DHT22;49822;41.468;13.560;2023-06-19T03:27:52;19.10;87.60
63317;DHT22;49822;41.468;13.560;2023-06-19T03:30:19;18.90;87.90
63317;DHT22;49822;41.468;13.560;2023-06-19T03:32:50;19.00;87.60
63317;DHT22;49822;41.468;13.560;2023-06-19T03:35:34;19.10;87.50
63317;DHT22;49822;41.468;13.560;2023-06-19T03:38:01;19.20;87.40
63317;DHT22;49822;41.468;13.560;2023-06-19T03:40:28;19.20;87.10
63317;DHT22;49822;41.468;13.560;2023-06-19T03:42:55;19.30;87.00
63317;DHT22;49822;41.468;13.560;2023-06-19T03:45:24;19.20;87.20
63317;DHT22;49822;41.468;13.560;2023-06-19T03:47:53;19.20;87.30
63317;DHT22;49822;41.468;13.560;2023-06-19T03:50:19;19.10;86.90
63317;DHT22;49822;41.468;13.560;2023-06-19T03:52:45;19.10;87.40
63317;DHT22;49822;41.468;13.560;2023-06-19T03:55:12;19.00;87.60
63317;DHT22;49822;41.468;13.560;2023-06-19T03:57:38;19.00;87.70
63317;DHT22;49822;41.468;13.560;2023-06-19T04:00:05;18.80;88.40
63317;DHT22;49822;41.468;13.560;2023-06-19T04:02:38;18.70;89.00
63317;DHT22;49822;41.468;13.560;2023-06-19T04:05:06;18.80;88.70
63317;DHT22;49822;41.468;13.560;2023-06-19T04:07:32;18.90;88.20
63317;DHT22;49822;41.468;13.560;2023-06-19T04:09:58;19.00;88.10
63317;DHT22;49822;41.468;13.560;2023-06-19T04:12:25;19.10;87.90
63317;DHT22;49822;41.468;13.560;2023-06-19T04:14:51;19.20;88.00
63317;DHT22;49822;41.468;13.560;2023-06-19T04:17:17;19.30;87.80
63317;DHT22;49822;41.468;13.560;2023-06-19T04:19:43;19.40;87.40
63317;DHT22;49822;41.468;13.560;2023-06-19T04:22:09;19.50;87.40
63317;DHT22;49822;41.468;13.560;2023-06-19T04:24:36;19.50;87.30
63317;DHT22;49822;41.468;13.560;2023-06-19T04:27:02;19.60;87.00
63317;DHT22;49822;41.468;13.560;2023-06-19T04:29:28;19.70;86.80
63317;DHT22;49822;41.468;13.560;2023-06-19T04:32:00;19.80;86.80
63317;DHT22;49822;41.468;13.560;2023-06-19T04:34:29;19.80;86.40
63317;DHT22;49822;41.468;13.560;2023-06-19T04:36:55;19.70;86.50
63317;DHT22;49822;41.468;13.560;2023-06-19T04:39:24;19.80;86.50
63317;DHT22;49822;41.468;13.560;2023-06-19T04:41:51;19.80;86.60
63317;DHT22;49822;41.468;13.560;2023-06-19T04:44:17;19.90;86.20
63317;DHT22;49822;41.468;13.560;2023-06-19T04:46:43;19.90;85.90
63317;DHT22;49822;41.468;13.560;2023-06-19T04:49:12;20.00;85.80
63317;DHT22;49822;41.468;13.560;2023-06-19T04:51:40;20.00;85.70
63317;DHT22;49822;41.468;13.560;2023-06-19T04:54:06;20.00;85.70
63317;DHT22;49822;41.468;13.560;2023-06-19T04:56:33;20.10;85.60
63317;DHT22;49822;41.468;13.560;2023-06-19T04:58:59;20.30;85.60
63317;DHT22;49822;41.468;13.560;2023-06-19T05:01:26;20.30;85.20
63317;DHT22;49822;41.468;13.560;2023-06-19T05:03:56;20.40;85.00
63317;DHT22;49822;41.468;13.560;2023-06-19T05:06:26;20.50;84.80
63317;DHT22;49822;41.468;13.560;2023-06-19T05:08:53;20.60;84.90
63317;DHT22;49822;41.468;13.560;2023-06-19T05:11:19;20.60;85.30
63317;DHT22;49822;41.468;13.560;2023-06-19T05:13:46;20.80;85.10
63317;DHT22;49822;41.468;13.560;2023-06-19T05:16:12;20.80;85.40
63317;DHT22;49822;41.468;13.560;2023-06-19T05:18:42;21.00;84.80
63317;DHT22;49822;41.468;13.560;2023-06-19T05:21:09;21.00;84.70
63317;DHT22;49822;41.468;13.560;2023-06-19T05:23:35;21.10;84.60
63317;DHT22;49822;41.468;13.560;2023-06-19T05:26:01;21.20;84.70
63317;DHT22;49822;41.468;13.560;2023-06-19T05:28:27;21.20;84.20
63317;DHT22;49822;41.468;13.560;2023-06-19T05:30:53;21.40;84.30
63317;DHT22;49822;41.468;13.560;2023-06-19T05:33:20;21.50;84.30
63317;DHT22;49822;41.468;13.560;2023-06-19T05:35:46;21.70;83.80
63317;DHT22;49822;41.468;13.560;2023-06-19T05:38:18;21.80;83.50
63317;DHT22;49822;41.468;13.560;2023-06-19T05:40:44;21.80;83.60
63317;DHT22;49822;41.468;13.560;2023-06-19T05:43:10;22.00;83.60
63317;DHT22;49822;41.468;13.560;2023-06-19T05:45:38;22.00;83.50
63317;DHT22;49822;41.468;13.560;2023-06-19T05:48:04;22.20;83.20
63317;DHT22;49822;41.468;13.560;2023-06-19T05:50:30;22.20;83.10
63317;DHT22;49822;41.468;13.560;2023-06-19T05:52:57;22.30;83.00
63317;DHT22;49822;41.468;13.560;2023-06-19T05:55:23;22.40;83.20
63317;DHT22;49822;41.468;13.560;2023-06-19T05:57:51;22.60;83.00
63317;DHT22;49822;41.468;13.560;2023-06-19T06:00:17;22.70;83.10
63317;DHT22;49822;41.468;13.560;2023-06-19T06:02:43;22.70;83.40
63317;DHT22;49822;41.468;13.560;2023-06-19T06:05:10;22.90;83.00
63317;DHT22;49822;41.468;13.560;2023-06-19T06:07:36;23.00;82.80
63317;DHT22;49822;41.468;13.560;2023-06-19T06:10:02;23.00;82.90
63317;DHT22;49822;41.468;13.560;2023-06-19T06:12:29;23.10;82.90
63317;DHT22;49822;41.468;13.560;2023-06-19T06:14:55;23.20;82.80
63317;DHT22;49822;41.468;13.560;2023-06-19T06:17:21;23.40;82.50
63317;DHT22;49822;41.468;13.560;2023-06-19T06:19:47;23.40;82.60
63317;DHT22;49822;41.468;13.560;2023-06-19T06:22:13;23.50;82.60
63317;DHT22;49822;41.468;13.560;2023-06-19T06:24:39;23.60;82.20
63317;DHT22;49822;41.468;13.560;2023-06-19T06:27:06;23.60;82.30
63317;DHT22;49822;41.468;13.560;2023-06-19T06:29:32;23.70;81.10
63317;DHT22;49822;41.468;13.560;2023-06-19T06:32:05;23.90;81.20
63317;DHT22;49822;41.468;13.560;2023-06-19T06:34:32;23.90;80.90
63317;DHT22;49822;41.468;13.560;2023-06-19T06:36:59;24.00;80.90
63317;DHT22;49822;41.468;13.560;2023-06-19T06:39:26;24.00;80.70
63317;DHT22;49822;41.468;13.560;2023-06-19T06:41:52;24.10;80.50
63317;DHT22;49822;41.468;13.560;2023-06-19T06:44:18;24.20;79.90
63317;DHT22;49822;41.468;13.560;2023-06-19T06:46:44;24.30;79.80
63317;DHT22;49822;41.468;13.560;2023-06-19T06:49:11;24.30;79.60
63317;DHT22;49822;41.468;13.560;2023-06-19T06:51:37;24.40;79.70
63317;DHT22;49822;41.468;13.560;2023-06-19T06:54:03;24.60;79.50
63317;DHT22;49822;41.468;13.560;2023-06-19T06:56:30;24.70;79.20
63317;DHT22;49822;41.468;13.560;2023-06-19T06:58:56;24.70;79.30
63317;DHT22;49822;41.468;13.560;2023-06-19T07:01:22;24.80;78.90
63317;DHT22;49822;41.468;13.560;2023-06-19T07:03:48;24.70;79.00
63317;DHT22;49822;41.468;13.560;2023-06-19T07:06:14;24.80;79.10
63317;DHT22;49822;41.468;13.560;2023-06-19T07:08:40;24.90;79.20
63317;DHT22;49822;41.468;13.560;2023-06-19T07:11:07;25.00;79.20
63317;DHT22;49822;41.468;13.560;2023-06-19T07:13:33;25.10;79.10
63317;DHT22;49822;41.468;13.560;2023-06-19T07:16:00;25.20;78.80
63317;DHT22;49822;41.468;13.560;2023-06-19T07:18:27;25.30;78.50
63317;DHT22;49822;41.468;13.560;2023-06-19T07:20:55;25.40;78.60
63317;DHT22;49822;41.468;13.560;2023-06-19T07:23:22;25.40;78.50
63317;DHT22;49822;41.468;13.560;2023-06-19T07:25:48;25.50;78.30
63317;DHT22;49822;41.468;13.560;2023-06-19T07:28:15;25.60;78.50
63317;DHT22;49822;41.468;13.560;2023-06-19T07:30:41;25.80;78.60
63317;DHT22;49822;41.468;13.560;2023-06-19T07:33:09;25.70;78.40
63317;DHT22;49822;41.468;13.560;2023-06-19T07:35:35;25.90;78.40
63317;DHT22;49822;41.468;13.560;2023-06-19T07:38:01;26.00;78.40
63317;DHT22;49822;41.468;13.560;2023-06-19T07:40:27;26.00;78.30
63317;DHT22;49822;41.468;13.560;2023-06-19T07:42:53;26.10;78.80
63317;DHT22;49822;41.468;13.560;2023-06-19T07:45:20;26.20;78.60
63317;DHT22;49822;41.468;13.560;2023-06-19T07:47:56;26.30;78.90
63317;DHT22;49822;41.468;13.560;2023-06-19T07:50:22;26.40;78.10
63317;DHT22;49822;41.468;13.560;2023-06-19T07:52:49;26.50;77.90
63317;DHT22;49822;41.468;13.560;2023-06-19T07:55:15;26.60;77.80
63317;DHT22;49822;41.468;13.560;2023-06-19T07:57:41;26.70;77.30
63317;DHT22;49822;41.468;13.560;2023-06-19T08:00:08;26.70;77.60
63317;DHT22;49822;41.468;13.560;2023-06-19T08:02:37;26.80;77.60
63317;DHT22;49822;41.468;13.560;2023-06-19T08:05:05;26.90;77.20
63317;DHT22;49822;41.468;13.560;2023-06-19T08:07:34;27.10;77.30
63317;DHT22;49822;41.468;13.560;2023-06-19T08:10:00;27.30;76.90
63317;DHT22;49822;41.468;13.560;2023-06-19T08:12:26;27.30;77.10
63317;DHT22;49822;41.468;13.560;2023-06-19T08:14:52;27.40;76.90
63317;DHT22;49822;41.468;13.560;2023-06-19T08:17:18;27.70;76.50
63317;DHT22;49822;41.468;13.560;2023-06-19T08:19:44;27.70;76.10
63317;DHT22;49822;41.468;13.560;2023-06-19T08:22:10;27.90;76.50
63317;DHT22;49822;41.468;13.560;2023-06-19T08:24:36;27.80;76.10
63317;DHT22;49822;41.468;13.560;2023-06-19T08:27:04;27.90;76.20
63317;DHT22;49822;41.468;13.560;2023-06-19T08:29:30;28.10;76.30
63317;DHT22;49822;41.468;13.560;2023-06-19T08:31:56;28.10;75.70
63317;DHT22;49822;41.468;13.560;2023-06-19T08:34:22;28.30;75.60
63317;DHT22;49822;41.468;13.560;2023-06-19T08:36:49;28.50;74.70
63317;DHT22;49822;41.468;13.560;2023-06-19T08:39:15;28.40;74.00
63317;DHT22;49822;41.468;13.560;2023-06-19T08:41:42;28.60;74.30
63317;DHT22;49822;41.468;13.560;2023-06-19T08:44:08;28.70;73.70
63317;DHT22;49822;41.468;13.560;2023-06-19T08:46:35;28.70;72.50
63317;DHT22;49822;41.468;13.560;2023-06-19T08:49:04;28.70;72.10
63317;DHT22;49822;41.468;13.560;2023-06-19T08:51:32;28.70;73.30
63317;DHT22;49822;41.468;13.560;2023-06-19T08:54:03;28.70;72.70
63317;DHT22;49822;41.468;13.560;2023-06-19T08:56:30;28.70;72.40
63317;DHT22;49822;41.468;13.560;2023-06-19T08:59:12;28.70;72.20
63317;DHT22;49822;41.468;13.560;2023-06-19T09:01:39;28.70;72.80
63317;DHT22;49822;41.468;13.560;2023-06-19T09:04:12;28.80;73.60
63317;DHT22;49822;41.468;13.560;2023-06-19T09:06:52;28.80;73.10
63317;DHT22;49822;41.468;13.560;2023-06-19T09:09:22;28.80;72.10
63317;DHT22;49822;41.468;13.560;2023-06-19T09:12:01;28.80;72.40
63317;DHT22;49822;41.468;13.560;2023-06-19T09:14:44;28.90;72.60
63317;DHT22;49822;41.468;13.560;2023-06-19T09:17:12;29.10;73.10
63317;DHT22;49822;41.468;13.560;2023-06-19T09:19:47;29.10;71.40
63317;DHT22;49822;41.468;13.560;2023-06-19T09:22:18;29.30;71.30
63317;DHT22;49822;41.468;13.560;2023-06-19T09:24:53;29.40;71.10
63317;DHT22;49822;41.468;13.560;2023-06-19T09:27:32;29.40;70.30
63317;DHT22;49822;41.468;13.560;2023-06-19T09:29:59;29.40;70.60
63317;DHT22;49822;41.468;13.560;2023-06-19T09:32:28;29.50;69.90
63317;DHT22;49822;41.468;13.560;2023-06-19T09:34:56;29.60;70.30
63317;DHT22;49822;41.468;13.560;2023-06-19T09:37:29;29.70;69.70
63317;DHT22;49822;41.468;13.560;2023-06-19T09:42:30;30.00;68.20
63317;DHT22;49822;41.468;13.560;2023-06-19T09:45:02;30.10;67.90
63317;DHT22;49822;41.468;13.560;2023-06-19T09:47:44;30.10;65.50
63317;DHT22;49822;41.468;13.560;2023-06-19T09:50:15;30.20;67.70
63317;DHT22;49822;41.468;13.560;2023-06-19T09:52:44;30.40;68.50
63317;DHT22;49822;41.468;13.560;2023-06-19T09:55:14;30.50;68.00
63317;DHT22;49822;41.468;13.560;2023-06-19T09:57:42;30.50;67.80
63317;DHT22;49822;41.468;13.560;2023-06-19T10:00:10;30.50;68.30
63317;DHT22;49822;41.468;13.560;2023-06-19T10:02:43;30.70;67.90
63317;DHT22;49822;41.468;13.560;2023-06-19T10:05:12;30.80;67.50
63317;DHT22;49822;41.468;13.560;2023-06-19T10:07:43;31.00;67.30
63317;DHT22;49822;41.468;13.560;2023-06-19T10:10:22;31.20;66.00
63317;DHT22;49822;41.468;13.560;2023-06-19T10:12:49;31.20;67.10
63317;DHT22;49822;41.468;13.560;2023-06-19T10:15:18;31.10;66.90
63317;DHT22;49822;41.468;13.560;2023-06-19T10:17:53;31.20;66.00
63317;DHT22;49822;41.468;13.560;2023-06-19T10:20:37;31.00;64.70
63317;DHT22;49822;41.468;13.560;2023-06-19T10:23:18;30.90;66.10
63317;DHT22;49822;41.468;13.560;2023-06-19T10:25:48;30.80;67.30
63317;DHT22;49822;41.468;13.560;2023-06-19T10:29:17;30.80;68.00
63317;DHT22;49822;41.468;13.560;2023-06-19T10:31:43;30.70;68.30
63317;DHT22;49822;41.468;13.560;2023-06-19T10:34:11;30.80;67.70
63317;DHT22;49822;41.468;13.560;2023-06-19T10:36:37;30.90;67.60
63317;DHT22;49822;41.468;13.560;2023-06-19T10:39:03;31.00;66.80
63317;DHT22;49822;41.468;13.560;2023-06-19T10:41:30;30.80;66.40
63317;DHT22;49822;41.468;13.560;2023-06-19T10:43:59;30.80;65.10
63317;DHT22;49822;41.468;13.560;2023-06-19T10:46:33;30.80;64.00
63317;DHT22;49822;41.468;13.560;2023-06-19T10:49:08;30.40;64.60
63317;DHT22;49822;41.468;13.560;2023-06-19T10:51:37;30.30;65.70
63317;DHT22;49822;41.468;13.560;2023-06-19T10:54:04;29.90;64.40
63317;DHT22;49822;41.468;13.560;2023-06-19T10:56:30;29.70;64.40
63317;DHT22;49822;41.468;13.560;2023-06-19T10:59:01;29.50;65.30
63317;DHT22;49822;41.468;13.560;2023-06-19T11:01:47;29.50;65.00
63317;DHT22;49822;41.468;13.560;2023-06-19T11:04:15;29.30;65.20
63317;DHT22;49822;41.468;13.560;2023-06-19T11:06:43;29.30;66.00
63317;DHT22;49822;41.468;13.560;2023-06-19T11:09:11;29.40;67.30
63317;DHT22;49822;41.468;13.560;2023-06-19T11:14:10;29.50;67.10
63317;DHT22;49822;41.468;13.560;2023-06-19T11:16:42;29.50;65.60
63317;DHT22;49822;41.468;13.560;2023-06-19T11:19:13;29.60;67.20
63317;DHT22;49822;41.468;13.560;2023-06-19T11:21:40;29.50;66.60
63317;DHT22;49822;41.468;13.560;2023-06-19T11:24:11;29.60;66.10
63317;DHT22;49822;41.468;13.560;2023-06-19T11:26:47;29.50;66.60
63317;DHT22;49822;41.468;13.560;2023-06-19T11:29:33;29.70;67.70
63317;DHT22;49822;41.468;13.560;2023-06-19T11:32:07;29.70;66.70
63317;DHT22;49822;41.468;13.560;2023-06-19T11:34:37;29.70;66.90
63317;DHT22;49822;41.468;13.560;2023-06-19T11:37:17;29.60;65.20
63317;DHT22;49822;41.468;13.560;2023-06-19T11:39:50;29.50;64.60
63317;DHT22;49822;41.468;13.560;2023-06-19T11:42:19;29.60;65.20
63317;DHT22;49822;41.468;13.560;2023-06-19T11:44:57;29.70;66.70
63317;DHT22;49822;41.468;13.560;2023-06-19T11:47:23;29.70;65.30
63317;DHT22;49822;41.468;13.560;2023-06-19T11:49:50;29.70;66.60
63317;DHT22;49822;41.468;13.560;2023-06-19T11:52:17;29.90;66.60
63317;DHT22;49822;41.468;13.560;2023-06-19T11:54:43;29.60;67.00
63317;DHT22;49822;41.468;13.560;2023-06-19T11:57:10;29.80;66.80
63317;DHT22;49822;41.468;13.560;2023-06-19T11:59:42;29.70;66.20
63317;DHT22;49822;41.468;13.560;2023-06-19T12:02:08;29.90;66.60
63317;DHT22;49822;41.468;13.560;2023-06-19T12:04:35;30.10;67.30
63317;DHT22;49822;41.468;13.560;2023-06-19T12:07:01;30.30;66.30
63317;DHT22;49822;41.468;13.560;2023-06-19T12:09:30;30.20;66.40
63317;DHT22;49822;41.468;13.560;2023-06-19T12:11:58;30.30;65.40
63317;DHT22;49822;41.468;13.560;2023-06-19T12:14:24;30.40;65.50
63317;DHT22;49822;41.468;13.560;2023-06-19T12:16:50;30.30;65.20
63317;DHT22;49822;41.468;13.560;2023-06-19T12:19:17;30.20;65.50
63317;DHT22;49822;41.468;13.560;2023-06-19T12:21:43;30.10;65.20
63317;DHT22;49822;41.468;13.560;2023-06-19T12:24:10;30.20;65.70
63317;DHT22;49822;41.468;13.560;2023-06-19T12:26:36;30.30;65.10
63317;DHT22;49822;41.468;13.560;2023-06-19T12:29:05;30.20;64.60
63317;DHT22;49822;41.468;13.560;2023-06-19T12:31:33;30.00;66.00
63317;DHT22;49822;41.468;13.560;2023-06-19T12:34:00;30.10;66.30
63317;DHT22;49822;41.468;13.560;2023-06-19T12:36:29;30.20;64.40
63317;DHT22;49822;41.468;13.560;2023-06-19T12:38:59;30.20;67.10
63317;DHT22;49822;41.468;13.560;2023-06-19T12:41:26;30.30;66.50
63317;DHT22;49822;41.468;13.560;2023-06-19T12:43:52;30.30;65.70
63317;DHT22;49822;41.468;13.560;2023-06-19T12:46:18;30.30;65.90
63317;DHT22;49822;41.468;13.560;2023-06-19T12:48:45;30.30;65.40
63317;DHT22;49822;41.468;13.560;2023-06-19T12:51:17;30.20;66.70
63317;DHT22;49822;41.468;13.560;2023-06-19T12:53:44;30.40;66.60
63317;DHT22;49822;41.468;13.560;2023-06-19T12:56:10;30.10;67.50
63317;DHT22;49822;41.468;13.560;2023-06-19T12:58:36;30.10;68.00
63317;DHT22;49822;41.468;13.560;2023-06-19T13:01:02;29.90;66.80
63317;DHT22;49822;41.468;13.560;2023-06-19T13:03:28;29.80;66.80
63317;DHT22;49822;41.468;13.560;2023-06-19T13:05:56;29.90;68.30
63317;DHT22;49822;41.468;13.560;2023-06-19T13:08:22;29.70;67.40
63317;DHT22;49822;41.468;13.560;2023-06-19T13:10:48;29.60;68.40
63317;DHT22;49822;41.468;13.560;2023-06-19T13:13:14;29.50;67.90
63317;DHT22;49822;41.468;13.560;2023-06-19T13:15:41;29.50;68.40
63317;DHT22;49822;41.468;13.560;2023-06-19T13:18:08;29.70;68.30
63317;DHT22;49822;41.468;13.560;2023-06-19T13:20:34;29.50;68.30
63317;DHT22;49822;41.468;13.560;2023-06-19T13:23:00;29.80;68.90
63317;DHT22;49822;41.468;13.560;2023-06-19T13:25:26;30.10;68.50
63317;DHT22;49822;41.468;13.560;2023-06-19T13:27:53;30.30;67.50
63317;DHT22;49822;41.468;13.560;2023-06-19T13:30:20;30.40;67.00
63317;DHT22;49822;41.468;13.560;2023-06-19T13:32:49;30.40;65.60
63317;DHT22;49822;41.468;13.560;2023-06-19T13:35:15;30.00;66.10
63317;DHT22;49822;41.468;13.560;2023-06-19T13:37:41;29.90;67.70
63317;DHT22;49822;41.468;13.560;2023-06-19T13:40:07;30.00;66.30
63317;DHT22;49822;41.468;13.560;2023-06-19T13:42:34;30.00;68.70
63317;DHT22;49822;41.468;13.560;2023-06-19T13:45:05;30.00;67.60
63317;DHT22;49822;41.468;13.560;2023-06-19T13:47:32;30.10;67.70
63317;DHT22;49822;41.468;13.560;2023-06-19T13:49:58;30.10;68.60
63317;DHT22;49822;41.468;13.560;2023-06-19T13:52:24;30.10;68.50
63317;DHT22;49822;41.468;13.560;2023-06-19T13:54:50;30.20;67.20
63317;DHT22;49822;41.468;13.560;2023-06-19T13:57:16;30.10;66.70
63317;DHT22;49822;41.468;13.560;2023-06-19T13:59:42;30.10;67.20
63317;DHT22;49822;41.468;13.560;2023-06-19T14:02:09;30.00;67.40
63317;DHT22;49822;41.468;13.560;2023-06-19T14:04:36;30.00;68.00
63317;DHT22;49822;41.468;13.560;2023-06-19T14:07:02;30.00;66.80
63317;DHT22;49822;41.468;13.560;2023-06-19T14:09:29;30.10;67.60
63317;DHT22;49822;41.468;13.560;2023-06-19T14:11:55;30.20;67.80
63317;DHT22;49822;41.468;13.560;2023-06-19T14:14:21;30.30;67.90
63317;DHT22;49822;41.468;13.560;2023-06-19T14:16:47;30.20;67.40
63317;DHT22;49822;41.468;13.560;2023-06-19T14:19:13;29.90;68.40
63317;DHT22;49822;41.468;13.560;2023-06-19T14:21:39;29.80;68.00
63317;DHT22;49822;41.468;13.560;2023-06-19T14:24:05;29.90;67.50
63317;DHT22;49822;41.468;13.560;2023-06-19T14:26:31;29.60;69.00
63317;DHT22;49822;41.468;13.560;2023-06-19T14:28:58;29.50;68.80
63317;DHT22;49822;41.468;13.560;2023-06-19T14:31:24;29.20;68.70
63317;DHT22;49822;41.468;13.560;2023-06-19T14:33:51;29.00;70.00
63317;DHT22;49822;41.468;13.560;2023-06-19T14:36:17;28.90;70.30
63317;DHT22;49822;41.468;13.560;2023-06-19T14:38:43;28.90;69.30
63317;DHT22;49822;41.468;13.560;2023-06-19T14:41:09;29.10;68.70
63317;DHT22;49822;41.468;13.560;2023-06-19T14:43:35;29.30;68.90
63317;DHT22;49822;41.468;13.560;2023-06-19T14:46:04;29.10;69.20
63317;DHT22;49822;41.468;13.560;2023-06-19T14:48:32;29.00;69.40
63317;DHT22;49822;41.468;13.560;2023-06-19T14:51:00;28.60;69.70
63317;DHT22;49822;41.468;13.560;2023-06-19T14:53:26;28.30;71.40
63317;DHT22;49822;41.468;13.560;2023-06-19T14:55:52;28.20;71.80
63317;DHT22;49822;41.468;13.560;2023-06-19T14:58:21;28.10;72.50
63317;DHT22;49822;41.468;13.560;2023-06-19T15:00:47;28.30;71.80
63317;DHT22;49822;41.468;13.560;2023-06-19T15:03:14;28.20;72.60
63317;DHT22;49822;41.468;13.560;2023-06-19T15:05:40;27.90;73.10
63317;DHT22;49822;41.468;13.560;2023-06-19T15:08:05;27.90;72.70
63317;DHT22;49822;41.468;13.560;2023-06-19T15:10:33;27.90;72.90
63317;DHT22;49822;41.468;13.560;2023-06-19T15:12:59;28.00;72.20
63317;DHT22;49822;41.468;13.560;2023-06-19T15:15:26;27.90;72.80
63317;DHT22;49822;41.468;13.560;2023-06-19T15:17:55;27.80;72.10
63317;DHT22;49822;41.468;13.560;2023-06-19T15:20:21;27.80;73.10
63317;DHT22;49822;41.468;13.560;2023-06-19T15:22:47;27.80;73.00
63317;DHT22;49822;41.468;13.560;2023-06-19T15:25:13;27.70;73.50